Time;durP1;ratioP1;P1;durP2;ratioP2;P2;SDS_P1;SDS_P2;PMS_P1;PMS_P2;Temp;Humidity;BMP_temperature;BMP_pressure;BME280_temperature;BME280_humidity;BME280_pressure;Samples;Min_cycle;Max_cycle;Signal;HPM_P1;HPM_P2
2021/12/24 00:00:10;;;;;;;1.23;1.23;;;;;;;-2.33;67.98;99546.97;6029639;29;20390;-77
2021/12/24 00:03:24;;;;;;;1.47;1.40;;;;;;;-2.36;68.62;99536.63;6030708;29;20216;-78
2021/12/24 00:06:28;;;;;;;3.50;1.40;;;;;;;-2.14;68.13;99556.25;6030810;29;20193;-77
2021/12/24 00:09:34;;;;;;;1.30;1.30;;;;;;;-2.18;68.53;99555.81;6030715;29;20220;-78
2021/12/24 00:12:44;;;;;;;1.63;1.37;;;;;;;-2.01;67.95;99561.75;6030431;29;20250;-77
2021/12/24 00:15:53;;;;;;;1.53;1.17;;;;;;;-2.33;68.33;99568.47;6030410;29;20265;-77
2021/12/24 00:19:12;;;;;;;1.20;1.20;;;;;;;-1.65;66.77;99559.81;6029974;29;20195;-77
2021/12/24 00:22:54;;;;;;;1.10;1.10;;;;;;;-1.83;67.00;99570.22;6030885;29;20250;-77
2021/12/24 00:36:01;;;;;;;1.13;1.13;;;;;;;-1.96;67.66;99580.84;6028438;29;20210;-77
2021/12/24 00:39:05;;;;;;;1.07;1.07;;;;;;;-2.10;67.60;99579.03;6012783;29;20210;-77
2021/12/24 00:42:11;;;;;;;1.00;1.00;;;;;;;-1.96;68.10;99586.22;6028738;29;20474;-77
2021/12/24 00:45:20;;;;;;;1.10;1.10;;;;;;;-2.09;68.25;99599.53;6027894;29;20217;-77
2021/12/24 00:48:24;;;;;;;2.33;1.00;;;;;;;-2.77;69.50;99590.06;6029976;29;20195;-77
2021/12/24 00:51:43;;;;;;;0.80;0.80;;;;;;;-2.82;70.68;99597.84;6029660;29;20198;-78
2021/12/24 00:55:05;;;;;;;1.00;1.00;;;;;;;-2.79;70.20;99610.09;6029222;29;20243;-77
2021/12/24 00:58:14;;;;;;;0.93;0.93;;;;;;;-3.04;71.12;99596.13;6029567;29;20202;-77
2021/12/24 01:01:19;;;;;;;0.90;0.90;;;;;;;-2.92;69.79;99621.50;6028298;29;20441;-78
2021/12/24 01:04:24;;;;;;;0.90;0.90;;;;;;;-3.34;70.58;99621.28;6029344;29;20201;-78
2021/12/24 01:07:31;;;;;;;0.93;0.93;;;;;;;-3.07;70.09;99606.38;6012618;29;20210;-77
2021/12/24 01:10:39;;;;;;;1.43;0.90;;;;;;;-3.17;70.05;99601.31;6028812;29;20324;-78
2021/12/24 01:13:43;;;;;;;0.90;0.90;;;;;;;-2.74;68.41;99603.13;6029332;29;20536;-78
2021/12/24 01:16:55;;;;;;;1.00;1.00;;;;;;;-3.11;68.19;99605.94;6031499;29;20194;-77
2021/12/24 01:20:06;;;;;;;0.97;0.97;;;;;;;-2.90;68.55;99603.34;6017999;29;20216;-77
2021/12/24 01:23:31;;;;;;;0.97;0.90;;;;;;;-2.85;68.40;99617.06;6032699;29;20218;-77
2021/12/24 01:26:41;;;;;;;0.90;0.90;;;;;;;-2.72;70.09;99622.59;6017801;29;20210;-77
2021/12/24 01:29:57;;;;;;;1.17;0.83;;;;;;;-2.95;69.31;99624.53;6017099;29;20377;-77
2021/12/24 01:40:07;;;;;;;0.70;0.70;;;;;;;-3.67;67.90;99638.72;6030962;29;20208;-77
2021/12/24 01:43:13;;;;;;;0.93;0.93;;;;;;;-3.42;68.79;99640.16;6023130;29;20220;-78
2021/12/24 01:46:18;;;;;;;1.00;1.00;;;;;;;-3.69;67.87;99627.31;6037953;29;20276;-78
2021/12/24 01:49:22;;;;;;;0.80;0.80;;;;;;;-3.58;68.07;99634.91;6017011;29;20418;-77
2021/12/24 01:52:27;;;;;;;0.90;0.90;;;;;;;-3.01;68.26;99633.34;6017370;29;20211;-78
2021/12/24 01:55:35;;;;;;;1.20;0.97;;;;;;;-3.59;70.05;99638.63;6035061;29;20208;-77
2021/12/24 01:58:41;;;;;;;0.87;0.87;;;;;;;-3.34;70.26;99639.25;6036363;29;20210;-77
2021/12/24 02:01:46;;;;;;;5.10;1.00;;;;;;;-3.59;69.49;99649.38;6020627;29;20333;-77
2021/12/24 02:04:50;;;;;;;1.03;1.03;;;;;;;-3.95;70.50;99654.50;6032074;29;20193;-77
2021/12/24 02:07:54;;;;;;;1.10;1.10;;;;;;;-4.02;69.70;99670.47;6031357;29;20553;-78
2021/12/24 02:11:00;;;;;;;0.93;0.93;;;;;;;-4.42;69.44;99673.38;6015965;29;20551;-77
2021/12/24 02:14:09;;;;;;;2.03;1.00;;;;;;;-4.36;68.82;99653.91;6015019;29;20249;-77
2021/12/24 02:30:41;;;;;;;1.00;1.00;;;;;;;-4.35;67.30;99677.03;6028303;29;20207;-78
2021/12/24 02:33:46;;;;;;;0.90;0.90;;;;;;;-4.79;66.32;99686.56;6013428;29;20242;-78
2021/12/24 02:36:52;;;;;;;1.20;1.10;;;;;;;-4.37;65.20;99683.56;6014428;29;20365;-77
2021/12/24 02:39:56;;;;;;;1.00;1.00;;;;;;;-5.10;66.00;99712.41;6012752;29;20207;-78
2021/12/24 02:43:01;;;;;;;1.00;1.00;;;;;;;-5.31;66.44;99697.72;6028852;29;20531;-78
2021/12/24 02:46:10;;;;;;;1.37;1.27;;;;;;;-5.08;66.92;99691.69;6030336;29;20192;-77
2021/12/24 02:53:53;;;;;;;0.97;0.90;;;;;;;-4.98;68.19;99692.34;6029994;29;20192;-77
2021/12/24 02:56:03;;;;;;;1.00;1.00;;;;;;;-4.87;70.31;99683.91;6028199;29;20207;-78
2021/12/24 02:59:12;;;;;;;0.80;0.80;;;;;;;-4.43;69.05;99681.56;6027037;29;20219;-77
2021/12/24 03:02:16;;;;;;;5.33;1.00;;;;;;;-4.81;69.17;99675.22;6013636;29;20291;-77
2021/12/24 03:05:23;;;;;;;1.10;1.10;;;;;;;-5.03;68.93;99683.97;6029919;29;20198;-78
2021/12/24 03:08:28;;;;;;;0.90;0.90;;;;;;;-5.50;68.23;99703.44;6029794;29;20228;-78
2021/12/24 03:11:33;;;;;;;3.70;0.90;;;;;;;-5.53;69.20;99709.13;6029160;29;20192;-77
2021/12/24 03:14:37;;;;;;;0.93;0.93;;;;;;;-5.60;67.39;99713.47;6027804;29;20239;-78
2021/12/24 03:17:48;;;;;;;0.87;0.87;;;;;;;-5.75;67.60;99703.59;6029158;29;20192;-77
2021/12/24 03:20:59;;;;;;;0.97;0.97;;;;;;;-5.76;63.93;99713.44;6027836;29;20475;-78
2021/12/24 03:27:42;;;;;;;0.80;0.80;;;;;;;-5.62;60.19;99731.53;5988539;29;20208;-78
2021/12/24 03:30:47;;;;;;;0.90;0.90;;;;;;;-5.46;61.50;99720.81;5988160;29;20394;-78
2021/12/24 03:33:53;;;;;;;0.90;0.90;;;;;;;-5.33;60.95;99726.50;6010543;29;20211;-77
2021/12/24 03:36:59;;;;;;;0.80;0.80;;;;;;;-5.38;58.95;99728.84;6012585;29;20271;-77
2021/12/24 03:40:08;;;;;;;0.90;0.90;;;;;;;-5.72;61.27;99743.38;6012321;29;20492;-77
2021/12/24 03:43:13;;;;;;;0.90;0.90;;;;;;;-5.38;58.33;99750.25;6026765;29;20242;-78
2021/12/24 03:46:23;;;;;;;0.90;0.90;;;;;;;-5.62;56.95;99757.44;6028166;29;20202;-77
2021/12/24 03:49:35;;;;;;;0.77;0.77;;;;;;;-5.91;58.31;99747.19;6025143;29;20210;-78
2021/12/24 03:53:02;;;;;;;0.90;0.90;;;;;;;-5.74;59.28;99748.03;6010149;29;20423;-79
2021/12/24 03:56:10;;;;;;;0.90;0.90;;;;;;;-5.68;57.79;99737.53;6010923;29;20195;-78
2021/12/24 03:59:14;;;;;;;0.90;0.90;;;;;;;-5.70;57.76;99746.72;6011702;29;20210;-78
2021/12/24 04:02:54;;;;;;;1.10;1.10;;;;;;;-5.93;57.80;99749.19;5981330;29;20248;-78
2021/12/24 04:06:21;;;;;;;1.00;1.00;;;;;;;-5.84;58.67;99758.03;6027084;29;20218;-77
2021/12/24 04:09:53;;;;;;;1.00;1.00;;;;;;;-6.20;58.99;99774.31;6028845;29;20493;-77
2021/12/24 04:13:27;;;;;;;0.80;0.80;;;;;;;-6.24;57.71;99772.97;6023325;29;20247;-78
2021/12/24 04:16:33;;;;;;;0.70;0.70;;;;;;;-6.11;57.07;99777.84;6031724;29;20192;-78
2021/12/24 04:26:20;;;;;;;0.90;0.90;;;;;;;-6.18;60.21;99776.81;6029905;29;20421;-77
2021/12/24 04:29:30;;;;;;;0.83;0.83;;;;;;;-5.85;59.46;99783.13;6015331;29;20215;-77
2021/12/24 04:32:49;;;;;;;2.73;0.90;;;;;;;-6.24;58.48;99785.50;6030986;29;20278;-78
2021/12/24 04:36:01;;;;;;;1.00;1.00;;;;;;;-6.32;57.97;99785.44;6016113;29;20282;-78
2021/12/24 04:39:30;;;;;;;1.10;1.10;;;;;;;-6.55;58.12;99782.50;6030754;29;20217;-78
2021/12/24 04:53:06;;;;;;;1.20;1.20;;;;;;;-6.24;57.82;99778.31;6030014;29;20498;-78
2021/12/24 05:03:31;;;;;;;1.00;1.00;;;;;;;-7.02;55.84;99792.72;6028530;29;20355;-78
2021/12/24 05:06:40;;;;;;;3.53;1.30;;;;;;;-7.31;56.10;99808.13;6014155;29;20242;-78
2021/12/24 05:09:44;;;;;;;1.00;1.00;;;;;;;-6.99;57.61;99808.41;6014080;29;20241;-78
2021/12/24 05:12:48;;;;;;;1.20;1.20;;;;;;;-7.48;54.31;99795.66;6014171;29;20551;-77
2021/12/24 05:16:04;;;;;;;1.03;1.03;;;;;;;-6.98;58.25;99796.75;6014586;29;20258;-78
2021/12/24 05:22:58;;;;;;;0.90;0.90;;;;;;;-6.97;53.93;99790.41;6031244;29;20218;-78
2021/12/24 05:26:02;;;;;;;0.90;0.90;;;;;;;-7.18;55.07;99793.44;6030695;29;20256;-77
2021/12/24 05:29:07;;;;;;;0.80;0.80;;;;;;;-7.77;55.35;99800.41;6030010;29;20380;-78
2021/12/24 05:32:12;;;;;;;1.00;1.00;;;;;;;-7.26;54.50;99805.84;6014706;29;20209;-77
2021/12/24 05:35:17;;;;;;;1.40;1.30;;;;;;;-7.54;52.91;99801.59;6013562;29;20276;-78
2021/12/24 05:38:22;;;;;;;1.37;1.17;;;;;;;-7.52;53.16;99811.16;6030173;29;20195;-78
2021/12/24 05:41:27;;;;;;;1.43;1.00;;;;;;;-7.49;51.99;99799.34;6013305;29;20208;-77
2021/12/24 05:44:33;;;;;;;0.83;0.83;;;;;;;-7.64;52.06;99790.16;6027159;29;20260;-77
2021/12/24 05:47:53;;;;;;;0.90;0.90;;;;;;;-7.96;54.17;99791.53;6027847;29;20250;-78
2021/12/24 05:50:59;;;;;;;0.90;0.90;;;;;;;-7.74;52.50;99790.25;6012199;29;20208;-77
2021/12/24 05:54:22;;;;;;;0.80;0.80;;;;;;;-7.80;51.23;99802.34;6029503;29;20197;-78
2021/12/24 05:57:30;;;;;;;0.90;0.90;;;;;;;-7.85;51.36;99807.28;6028265;29;20233;-77
2021/12/24 06:00:38;;;;;;;0.90;0.90;;;;;;;-7.73;51.62;99807.09;6027285;29;20243;-77
2021/12/24 06:03:43;;;;;;;1.00;1.00;;;;;;;-8.28;50.23;99817.78;6026591;29;20209;-77
2021/12/24 06:06:48;;;;;;;0.90;0.90;;;;;;;-8.16;53.27;99816.59;6027788;29;20325;-77
2021/12/24 06:09:53;;;;;;;0.90;0.90;;;;;;;-7.93;54.01;99812.53;6027779;29;20210;-77
2021/12/24 06:12:57;;;;;;;1.00;1.00;;;;;;;-8.28;52.26;99823.09;6029101;29;20305;-77
2021/12/24 06:16:02;;;;;;;1.00;1.00;;;;;;;-8.23;53.75;99802.19;6028984;29;20200;-77
2021/12/24 06:19:07;;;;;;;1.00;1.00;;;;;;;-8.29;52.08;99816.13;6028525;29;20416;-77
2021/12/24 06:22:13;;;;;;;0.83;0.83;;;;;;;-8.51;52.02;99827.13;6028317;29;20254;-77
2021/12/24 06:25:18;;;;;;;0.90;0.90;;;;;;;-8.54;53.51;99806.97;6027420;29;20451;-77
2021/12/24 06:28:24;;;;;;;1.20;1.20;;;;;;;-8.88;51.52;99832.44;6026670;29;20199;-77
2021/12/24 06:31:29;;;;;;;0.93;0.93;;;;;;;-8.83;51.77;99821.34;6026996;29;20391;-77
2021/12/24 06:34:33;;;;;;;0.93;0.93;;;;;;;-8.40;53.11;99803.00;6027757;29;20196;-77
2021/12/24 06:37:39;;;;;;;1.00;1.00;;;;;;;-9.08;52.89;99807.66;6026630;29;20486;-78
2021/12/24 06:40:43;;;;;;;0.90;0.90;;;;;;;-9.19;54.10;99805.16;6027595;29;20255;-78
2021/12/24 06:43:48;;;;;;;1.20;1.10;;;;;;;-9.33;53.64;99802.94;6027434;29;20228;-77
2021/12/24 06:46:53;;;;;;;1.20;1.20;;;;;;;-9.40;54.38;99801.84;6026783;29;20220;-77
2021/12/24 06:49:57;;;;;;;1.10;1.10;;;;;;;-9.24;53.63;99796.78;6028160;29;20199;-77
2021/12/24 06:53:03;;;;;;;1.20;1.13;;;;;;;-9.12;54.67;99806.28;6027917;29;20233;-78
2021/12/24 06:56:09;;;;;;;1.20;1.20;;;;;;;-9.19;53.21;99810.47;6028070;29;20213;-77
2021/12/24 06:59:18;;;;;;;0.90;0.90;;;;;;;-9.50;53.52;99822.28;6011461;29;20208;-77
2021/12/24 07:02:24;;;;;;;1.20;1.20;;;;;;;-9.54;54.29;99828.81;6011327;29;20207;-77
2021/12/24 07:05:28;;;;;;;1.10;1.10;;;;;;;-9.36;54.42;99829.81;6026320;29;20393;-77
2021/12/24 07:08:34;;;;;;;1.23;1.23;;;;;;;-9.82;55.10;99826.97;6027085;29;20275;-77
2021/12/24 07:11:38;;;;;;;1.27;1.27;;;;;;;-9.53;53.01;99821.69;6027116;29;20232;-77
2021/12/24 07:14:43;;;;;;;1.10;1.10;;;;;;;-9.86;53.14;99818.50;6027582;29;20259;-77
2021/12/24 07:17:48;;;;;;;1.30;1.30;;;;;;;-10.37;54.60;99825.78;6027381;29;20439;-77
2021/12/24 07:20:52;;;;;;;1.13;1.13;;;;;;;-9.76;55.01;99826.44;6025431;29;20204;-78
2021/12/24 07:23:58;;;;;;;1.00;1.00;;;;;;;-9.90;53.78;99809.13;6026111;29;20192;-78
2021/12/24 07:27:02;;;;;;;1.10;1.10;;;;;;;-9.74;54.08;99808.53;6025347;29;20228;-77
2021/12/24 07:30:10;;;;;;;0.93;0.93;;;;;;;-9.80;53.69;99811.75;6031292;29;20191;-78
2021/12/24 07:33:17;;;;;;;1.20;1.20;;;;;;;-9.80;53.09;99817.06;6033923;29;20191;-78
2021/12/24 07:36:21;;;;;;;1.03;1.03;;;;;;;-9.84;54.90;99839.56;6032893;29;20499;-78
2021/12/24 07:39:27;;;;;;;1.60;1.20;;;;;;;-10.14;53.54;99842.34;6030879;29;20251;-78
2021/12/24 07:42:32;;;;;;;0.90;0.90;;;;;;;-9.66;53.91;99814.00;6030518;29;20229;-78
2021/12/24 07:45:40;;;;;;;0.80;0.80;;;;;;;-9.81;53.53;99826.00;6029694;29;20226;-78
2021/12/24 07:48:49;;;;;;;1.30;1.00;;;;;;;-9.64;52.22;99835.94;6030817;29;20214;-78
2021/12/24 07:52:03;;;;;;;1.30;1.30;;;;;;;-9.57;53.65;99826.44;6030746;29;20223;-78
2021/12/24 07:55:11;;;;;;;1.13;1.13;;;;;;;-9.27;51.99;99828.97;6030854;29;20203;-78
2021/12/24 07:58:21;;;;;;;1.40;1.40;;;;;;;-9.52;51.82;99834.84;6030845;29;20282;-78
2021/12/24 08:01:27;;;;;;;1.30;1.30;;;;;;;-9.55;52.92;99821.84;6031076;29;20199;-78
2021/12/24 08:04:32;;;;;;;0.90;0.90;;;;;;;-9.42;52.51;99827.72;6030134;29;20227;-78
2021/12/24 08:07:36;;;;;;;1.40;1.40;;;;;;;-9.52;53.45;99826.88;6031096;29;20216;-78
2021/12/24 08:10:42;;;;;;;1.27;1.27;;;;;;;-9.63;52.31;99827.03;6029287;29;20305;-78
2021/12/24 08:13:46;;;;;;;0.93;0.93;;;;;;;-10.07;53.09;99827.53;6029129;29;20241;-78
2021/12/24 08:16:51;;;;;;;1.00;1.00;;;;;;;-9.59;52.29;99817.78;6029323;29;20202;-78
2021/12/24 08:19:55;;;;;;;1.20;1.20;;;;;;;-9.30;52.67;99813.31;6028238;29;20191;-77
2021/12/24 08:22:59;;;;;;;1.07;1.07;;;;;;;-9.74;52.91;99797.91;6028889;29;20199;-78
2021/12/24 08:26:06;;;;;;;1.00;1.00;;;;;;;-9.60;52.77;99794.84;6027937;29;20382;-77
2021/12/24 08:29:13;;;;;;;1.20;1.20;;;;;;;-10.10;53.62;99796.78;6028207;29;20198;-77
2021/12/24 08:32:17;;;;;;;0.97;0.97;;;;;;;-10.10;53.26;99793.28;6028462;29;20260;-78
2021/12/24 08:35:22;;;;;;;1.27;1.27;;;;;;;-10.08;53.24;99791.31;6028372;29;20192;-77
2021/12/24 08:38:26;;;;;;;1.40;1.40;;;;;;;-10.17;52.11;99797.47;6028111;29;20312;-77
2021/12/24 08:41:32;;;;;;;1.13;1.13;;;;;;;-10.05;51.87;99799.00;6026995;29;20429;-78
2021/12/24 08:44:38;;;;;;;1.17;1.17;;;;;;;-10.26;52.79;99807.06;6026495;29;20199;-77
2021/12/24 08:47:43;;;;;;;1.00;1.00;;;;;;;-10.14;52.95;99815.78;6026205;29;20251;-77
2021/12/24 08:50:47;;;;;;;1.30;1.30;;;;;;;-9.50;52.19;99811.63;6024870;29;20230;-77
2021/12/24 08:53:52;;;;;;;1.13;1.13;;;;;;;-9.98;51.96;99800.13;6026260;29;20252;-77
2021/12/24 08:56:58;;;;;;;1.17;1.17;;;;;;;-9.58;51.75;99795.56;6028012;29;20284;-76
2021/12/24 09:00:04;;;;;;;1.17;1.17;;;;;;;-9.71;51.75;99797.66;6029340;29;20264;-77
2021/12/24 09:03:14;;;;;;;1.00;1.00;;;;;;;-9.81;52.32;99808.28;6030779;29;20191;-77
2021/12/24 09:06:19;;;;;;;1.00;1.00;;;;;;;-8.92;50.52;99800.91;6030004;29;20272;-77
2021/12/24 09:09:24;;;;;;;1.00;1.00;;;;;;;-8.97;50.26;99787.22;6029442;29;20282;-77
2021/12/24 09:12:29;;;;;;;1.20;1.20;;;;;;;-9.26;50.98;99798.72;6027974;29;20242;-76
2021/12/24 09:15:33;;;;;;;1.10;1.10;;;;;;;-9.07;50.04;99798.72;6027735;29;20398;-76
2021/12/24 09:18:41;;;;;;;1.20;1.20;;;;;;;-9.01;51.16;99802.63;6027797;29;20371;-76
2021/12/24 09:21:45;;;;;;;1.20;1.20;;;;;;;-8.81;50.13;99820.22;6031826;29;20593;-78
2021/12/24 09:24:53;;;;;;;1.07;1.07;;;;;;;-9.18;50.64;99811.31;6029221;29;20192;-76
2021/12/24 09:27:59;;;;;;;1.10;1.10;;;;;;;-8.62;50.05;99806.84;6029073;29;20219;-76
2021/12/24 09:31:04;;;;;;;1.00;1.00;;;;;;;-8.76;50.75;99806.47;6029707;29;20203;-77
2021/12/24 09:34:08;;;;;;;1.30;1.30;;;;;;;-8.42;50.03;99804.97;6028889;29;20474;-79
2021/12/24 09:37:13;;;;;;;1.20;1.20;;;;;;;-8.19;49.69;99795.59;6031278;29;20207;-77
2021/12/24 09:40:18;;;;;;;0.90;0.90;;;;;;;-8.06;50.76;99785.44;6029742;29;20192;-77
2021/12/24 09:43:26;;;;;;;1.17;1.17;;;;;;;-8.55;50.32;99788.47;6029651;29;20191;-76
2021/12/24 09:46:31;;;;;;;1.10;1.10;;;;;;;-8.22;50.49;99790.56;6028417;29;20220;-76
2021/12/24 09:49:36;;;;;;;1.40;1.40;;;;;;;-7.90;49.60;99780.25;6027434;29;20199;-77
2021/12/24 09:52:41;;;;;;;1.27;1.27;;;;;;;-8.62;50.63;99782.03;6028195;29;20198;-76
2021/12/24 09:55:45;;;;;;;1.00;1.00;;;;;;;-8.54;51.03;99768.84;6028025;29;20197;-76
2021/12/24 09:58:51;;;;;;;1.27;1.27;;;;;;;-8.60;51.06;99785.41;6014137;29;20288;-79
2021/12/24 10:01:58;;;;;;;1.10;1.10;;;;;;;-8.02;50.57;99781.47;6030169;29;20192;-77
2021/12/24 10:05:02;;;;;;;1.30;1.30;;;;;;;-8.13;51.06;99779.00;6012363;29;20212;-78
2021/12/24 10:08:11;;;;;;;2.00;1.53;;;;;;;-8.65;50.29;99777.03;6032572;29;20252;-78
2021/12/24 10:11:17;;;;;;;2.97;1.10;;;;;;;-8.67;51.20;99784.31;6029787;29;20281;-78
2021/12/24 10:14:31;;;;;;;1.00;1.00;;;;;;;-8.76;51.08;99779.88;6027906;29;20250;-76
2021/12/24 10:17:38;;;;;;;1.03;1.03;;;;;;;-8.55;50.98;99784.00;6027520;29;20198;-78
2021/12/24 10:20:58;;;;;;;1.10;1.10;;;;;;;-8.42;50.95;99783.66;6012033;29;20264;-77
2021/12/24 10:24:05;;;;;;;1.20;1.20;;;;;;;-8.46;51.18;99782.25;6025986;29;20192;-76
2021/12/24 10:27:09;;;;;;;1.30;1.30;;;;;;;-8.36;50.88;99777.72;6027103;29;20220;-76
2021/12/24 10:30:22;;;;;;;1.50;1.40;;;;;;;-8.69;51.34;99791.59;6026166;29;20507;-75
2021/12/24 10:33:27;;;;;;;1.07;1.07;;;;;;;-8.90;51.40;99804.25;6026189;29;20492;-78
2021/12/24 10:36:31;;;;;;;1.00;1.00;;;;;;;-8.63;50.75;99796.34;6025995;29;20574;-77
2021/12/24 10:39:39;;;;;;;1.10;1.10;;;;;;;-8.39;50.84;99783.34;6025597;29;20267;-77
2021/12/24 10:42:50;;;;;;;1.20;1.20;;;;;;;-9.19;51.23;99789.19;6026635;29;20312;-78
2021/12/24 10:46:12;;;;;;;1.20;1.20;;;;;;;-8.51;50.34;99779.22;6029855;29;20199;-78
2021/12/24 10:49:18;;;;;;;4.13;1.30;;;;;;;-8.28;50.41;99769.84;6033686;29;20228;-78
2021/12/24 10:55:49;;;;;;;1.40;1.40;;;;;;;-8.62;50.16;99771.41;6013154;29;20207;-78
2021/12/24 10:58:54;;;;;;;1.90;1.80;;;;;;;-8.27;50.30;99766.22;6028114;29;20195;-77
2021/12/24 11:02:10;;;;;;;1.10;1.10;;;;;;;-8.39;50.88;99761.22;6027155;29;20198;-78
2021/12/24 11:05:28;;;;;;;1.17;1.17;;;;;;;-8.26;50.15;99767.88;6027274;29;20193;-77
2021/12/24 11:08:32;;;;;;;1.50;1.20;;;;;;;-8.25;50.44;99769.56;6026357;29;20240;-80
2021/12/24 11:11:38;;;;;;;1.20;1.20;;;;;;;-8.40;50.03;99772.84;6027556;29;20271;-77
2021/12/24 11:14:42;;;;;;;1.10;1.10;;;;;;;-8.33;50.22;99761.47;6025971;29;20524;-77
2021/12/24 11:17:50;;;;;;;1.50;1.50;;;;;;;-8.61;51.18;99762.44;6026063;29;20229;-77
2021/12/24 11:20:56;;;;;;;1.30;1.30;;;;;;;-8.41;50.33;99753.38;6026400;29;20199;-78
2021/12/24 11:24:00;;;;;;;1.30;1.30;;;;;;;-8.73;51.17;99760.97;6026280;29;20272;-77
2021/12/24 11:27:05;;;;;;;1.53;1.53;;;;;;;-8.57;50.28;99747.88;6025595;29;20192;-77
2021/12/24 11:30:11;;;;;;;1.30;1.30;;;;;;;-8.62;51.21;99766.06;6026497;29;20241;-77
2021/12/24 11:33:24;;;;;;;1.20;1.20;;;;;;;-8.60;51.51;99766.78;6025550;29;20203;-77
2021/12/24 11:36:30;;;;;;;1.50;1.50;;;;;;;-8.65;50.75;99761.06;6026369;29;20258;-78
2021/12/24 11:39:35;;;;;;;1.13;1.13;;;;;;;-8.80;51.64;99749.22;6025943;29;20224;-77
2021/12/24 11:42:40;;;;;;;1.10;1.10;;;;;;;-8.40;51.46;99749.75;6024844;29;20192;-77
2021/12/24 11:45:44;;;;;;;1.23;1.23;;;;;;;-8.84;51.39;99756.66;6026061;29;20192;-77
2021/12/24 11:48:53;;;;;;;2.57;0.97;;;;;;;-8.18;50.59;99746.66;6024435;29;20539;-76
2021/12/24 11:51:58;;;;;;;1.37;1.37;;;;;;;-8.26;50.95;99746.56;6024578;29;20268;-77
2021/12/24 11:55:03;;;;;;;1.43;1.43;;;;;;;-8.45;51.26;99741.34;6025811;29;20200;-77
2021/12/24 11:58:10;;;;;;;1.47;1.40;;;;;;;-9.10;52.41;99756.44;6025549;29;20205;-77
2021/12/24 12:01:16;;;;;;;1.37;1.37;;;;;;;-8.70;51.92;99750.03;6026467;29;20248;-78
2021/12/24 12:04:23;;;;;;;1.40;1.40;;;;;;;-8.73;51.29;99752.97;6025897;29;20198;-77
2021/12/24 12:07:27;;;;;;;1.30;1.30;;;;;;;-8.90;52.37;99740.41;6026743;29;20263;-78
2021/12/24 12:10:51;;;;;;;1.57;1.57;;;;;;;-8.57;51.58;99753.19;6027495;29;20207;-78
2021/12/24 12:13:59;;;;;;;1.70;1.40;;;;;;;-8.91;51.01;99760.03;6026456;29;20237;-78
2021/12/24 12:17:06;;;;;;;3.00;1.30;;;;;;;-8.72;51.69;99746.66;6027723;29;20230;-78
2021/12/24 12:20:39;;;;;;;1.20;1.20;;;;;;;-8.91;50.69;99752.06;6027732;29;20223;-78
2021/12/24 12:24:05;;;;;;;1.17;1.17;;;;;;;-8.69;51.56;99749.03;6025459;29;20192;-77
2021/12/24 12:27:18;;;;;;;1.20;1.20;;;;;;;-8.54;51.62;99748.41;6025126;29;20193;-75
2021/12/24 12:30:28;;;;;;;1.20;1.20;;;;;;;-8.58;51.19;99752.34;6025953;29;20223;-76
2021/12/24 12:33:35;;;;;;;1.20;1.20;;;;;;;-8.76;51.61;99745.28;6029483;29;20233;-77
2021/12/24 12:36:41;;;;;;;1.20;1.20;;;;;;;-8.62;51.40;99750.94;6029717;29;20192;-76
2021/12/24 12:39:46;;;;;;;1.20;1.20;;;;;;;-8.56;51.15;99744.22;6030526;29;20193;-77
2021/12/24 12:43:09;;;;;;;1.23;1.23;;;;;;;-9.10;51.80;99750.28;6029589;29;20199;-75
2021/12/24 12:46:20;;;;;;;1.10;1.10;;;;;;;-8.64;51.53;99738.78;6029093;29;20193;-77
2021/12/24 12:49:31;;;;;;;1.40;1.40;;;;;;;-8.75;51.55;99749.63;6029035;29;20287;-77
2021/12/24 12:52:37;;;;;;;1.30;1.30;;;;;;;-8.64;51.99;99757.41;6028971;29;20259;-77
2021/12/24 12:55:41;;;;;;;1.33;1.33;;;;;;;-8.66;51.40;99751.41;6028311;29;20227;-77
2021/12/24 12:58:47;;;;;;;1.37;1.37;;;;;;;-8.72;51.90;99749.31;6029297;29;20208;-75
2021/12/24 13:01:53;;;;;;;1.00;1.00;;;;;;;-8.58;51.07;99756.84;6028806;29;20195;-75
2021/12/24 13:05:11;;;;;;;1.33;1.33;;;;;;;-8.73;51.62;99758.31;6027848;29;20194;-75
2021/12/24 13:08:20;;;;;;;1.30;1.30;;;;;;;-8.34;51.54;99743.00;6028709;29;20223;-76
2021/12/24 13:11:24;;;;;;;1.17;1.17;;;;;;;-8.86;51.66;99758.63;6028727;29;20304;-77
2021/12/24 13:14:31;;;;;;;1.40;1.40;;;;;;;-8.66;51.38;99743.41;6027406;29;20199;-76
2021/12/24 13:17:36;;;;;;;1.40;1.40;;;;;;;-8.87;51.66;99750.78;6027666;29;20359;-76
2021/12/24 13:22:27;;;;;;;2.43;1.73;;;;;;;-8.58;51.42;99743.53;6028681;29;20196;-76
2021/12/24 13:24:19;;;;;;;1.10;1.10;;;;;;;-9.19;51.51;99751.16;6028918;29;20215;-77
2021/12/24 13:27:27;;;;;;;1.33;1.33;;;;;;;-8.52;50.95;99758.91;6028660;29;20259;-77
2021/12/24 13:30:32;;;;;;;1.90;1.23;;;;;;;-8.82;50.98;99760.00;6011249;29;20234;-77
2021/12/24 13:33:36;;;;;;;1.17;1.17;;;;;;;-9.04;51.31;99767.50;6028592;29;20234;-77
2021/12/24 13:36:41;;;;;;;0.90;0.90;;;;;;;-8.96;51.12;99775.59;6027421;29;20193;-78
2021/12/24 13:39:51;;;;;;;1.10;1.10;;;;;;;-8.83;50.33;99757.50;6027375;29;20324;-76
2021/12/24 13:42:58;;;;;;;1.00;1.00;;;;;;;-8.69;49.80;99759.66;6028029;29;20196;-78
2021/12/24 13:46:06;;;;;;;1.43;1.43;;;;;;;-8.94;51.04;99770.97;6028173;29;20362;-77
2021/12/24 13:49:23;;;;;;;1.00;1.00;;;;;;;-8.80;50.81;99757.22;6028463;29;20236;-77
2021/12/24 13:56:02;;;;;;;1.37;1.37;;;;;;;-8.89;52.64;99763.38;6029652;29;20273;-79
2021/12/24 13:59:08;;;;;;;1.30;1.20;;;;;;;-9.02;50.88;99757.53;6032096;29;20196;-76
2021/12/24 14:02:13;;;;;;;1.13;1.13;;;;;;;-9.11;51.08;99770.72;6029689;29;20497;-77
2021/12/24 14:05:19;;;;;;;1.20;1.20;;;;;;;-9.24;50.98;99775.50;6029066;29;20215;-77
2021/12/24 14:08:26;;;;;;;1.00;1.00;;;;;;;-9.30;51.48;99778.75;6029941;29;20482;-77
2021/12/24 14:11:35;;;;;;;1.30;1.30;;;;;;;-9.08;50.93;99770.44;6028400;29;20369;-75
2021/12/24 14:14:49;;;;;;;3.60;2.17;;;;;;;-8.83;50.65;99779.63;6026486;29;20483;-77
2021/12/24 14:18:17;;;;;;;1.13;1.13;;;;;;;-8.95;51.50;99774.59;6027881;29;20192;-76
2021/12/24 14:24:52;;;;;;;1.40;1.40;;;;;;;-9.27;51.46;99781.13;6026374;29;20488;-77
2021/12/24 14:27:57;;;;;;;1.60;1.57;;;;;;;-9.07;51.85;99774.78;6027715;29;20196;-76
2021/12/24 14:31:05;;;;;;;2.07;1.10;;;;;;;-9.06;52.07;99795.06;6027554;29;20226;-76
2021/12/24 14:34:10;;;;;;;1.20;1.20;;;;;;;-9.18;51.16;99806.84;6026495;29;20193;-76
2021/12/24 14:37:27;;;;;;;1.40;1.40;;;;;;;-9.12;51.43;99806.28;6026720;29;20389;-77
2021/12/24 14:40:34;;;;;;;1.47;1.40;;;;;;;-9.25;52.14;99800.44;6028540;29;20259;-78
2021/12/24 14:43:40;;;;;;;3.13;1.83;;;;;;;-9.30;51.81;99813.31;6026962;29;20215;-78
2021/12/24 14:46:56;;;;;;;1.20;1.20;;;;;;;-9.23;52.47;99808.25;6027847;29;20192;-77
2021/12/24 14:50:04;;;;;;;2.10;1.27;;;;;;;-9.37;51.92;99801.56;6027498;29;20247;-76
2021/12/24 14:53:13;;;;;;;4.03;1.37;;;;;;;-9.05;51.88;99811.88;6024684;29;20192;-76
2021/12/24 14:56:19;;;;;;;1.40;1.40;;;;;;;-8.91;51.70;99802.59;6026753;29;20199;-76
2021/12/24 14:59:25;;;;;;;1.70;1.70;;;;;;;-9.20;52.40;99808.81;6026626;29;20196;-76
2021/12/24 15:02:29;;;;;;;2.13;1.50;;;;;;;-8.99;51.44;99815.78;6025333;29;20479;-74
2021/12/24 15:05:36;;;;;;;2.73;1.50;;;;;;;-9.01;51.51;99820.41;6026055;29;20214;-75
2021/12/24 15:08:40;;;;;;;1.37;1.37;;;;;;;-8.85;51.48;99812.69;6025862;29;20323;-75
2021/12/24 15:11:46;;;;;;;1.40;1.40;;;;;;;-9.23;51.84;99809.09;6026146;29;20216;-76
2021/12/24 15:14:54;;;;;;;1.27;1.20;;;;;;;-8.97;51.94;99813.81;6026705;29;20191;-76
2021/12/24 15:17:59;;;;;;;1.43;1.43;;;;;;;-9.53;51.90;99806.59;6028450;29;20198;-79
2021/12/24 15:21:03;;;;;;;1.30;1.30;;;;;;;-9.29;51.91;99807.00;6027554;29;20195;-78
2021/12/24 15:24:12;;;;;;;1.17;1.17;;;;;;;-9.23;51.53;99797.63;6028105;29;20191;-80
2021/12/24 15:27:17;;;;;;;1.47;1.47;;;;;;;-9.10;51.32;99799.00;6027504;29;20296;-77
2021/12/24 15:30:23;;;;;;;1.20;1.20;;;;;;;-9.30;52.11;99802.69;6027596;29;20223;-79
2021/12/24 15:33:27;;;;;;;1.30;1.20;;;;;;;-9.32;51.27;99814.44;6032158;29;20219;-78
2021/12/24 15:36:33;;;;;;;1.30;1.30;;;;;;;-9.23;51.70;99808.25;6029572;29;20195;-76
2021/12/24 15:39:37;;;;;;;1.30;1.30;;;;;;;-8.99;51.44;99805.97;6027180;29;20434;-77
2021/12/24 15:42:41;;;;;;;1.20;1.20;;;;;;;-8.91;51.15;99813.25;6031866;29;20227;-77
2021/12/24 15:45:47;;;;;;;1.40;1.40;;;;;;;-9.42;51.68;99814.44;6034336;29;20198;-77
2021/12/24 15:48:52;;;;;;;0.97;0.97;;;;;;;-9.40;51.50;99812.47;6026606;29;20192;-77
2021/12/24 15:51:56;;;;;;;1.50;1.50;;;;;;;-9.09;51.78;99806.00;6026428;29;20319;-76
2021/12/24 15:55:06;;;;;;;1.40;1.40;;;;;;;-8.93;51.05;99809.91;6025147;29;20197;-78
2021/12/24 15:58:17;;;;;;;1.70;1.70;;;;;;;-9.07;51.40;99816.50;6026029;29;20219;-81
2021/12/24 16:01:22;;;;;;;1.50;1.50;;;;;;;-8.95;51.62;99809.19;6027120;29;20236;-77